Time;durP1;ratioP1;P1;durP2;ratioP2;P2;SDS_P1;SDS_P2;PMS_P1;PMS_P2;Temp;Humidity;BMP_temperature;BMP_pressure;BME280_temperature;BME280_humidity;BME280_pressure;Samples;Min_cycle;Max_cycle;Signal;HPM_P1;HPM_P2
2021/08/28 00:00:50;;;;;;;14.47;9.70;;;;;;;13.97;100.00;101298.84;5078927;28;20027;-84
2021/08/28 00:03:17;;;;;;;11.70;8.07;;;;;;;13.97;100.00;101298.84;5078466;28;20130;-84
2021/08/28 00:05:42;;;;;;;13.90;8.65;;;;;;;13.99;100.00;101302.22;5078790;28;20118;-83
2021/08/28 00:08:08;;;;;;;14.57;8.53;;;;;;;13.91;100.00;101295.03;5095817;28;20252;-85
2021/08/28 00:10:33;;;;;;;13.03;8.67;;;;;;;13.93;100.00;101299.22;5078423;28;20036;-84
2021/08/28 00:12:58;;;;;;;14.67;7.97;;;;;;;13.91;100.00;101295.84;5078400;28;20077;-82
2021/08/28 00:15:24;;;;;;;18.70;10.57;;;;;;;13.81;100.00;101284.44;5077516;28;20034;-84
2021/08/28 00:17:49;;;;;;;18.33;10.07;;;;;;;13.92;100.00;101302.88;5094681;28;20529;-84
2021/08/28 00:20:15;;;;;;;14.70;10.23;;;;;;;13.95;100.00;101301.69;5078070;28;20516;-84
2021/08/28 00:22:41;;;;;;;16.98;10.15;;;;;;;13.97;100.00;101305.06;5094810;28;20069;-84
2021/08/28 00:25:07;;;;;;;15.45;10.50;;;;;;;13.91;100.00;101297.72;5094761;28;20028;-83
2021/08/28 00:27:34;;;;;;;18.17;9.98;;;;;;;13.88;100.00;101306.94;5077761;28;20031;-84
2021/08/28 00:29:59;;;;;;;12.77;9.23;;;;;;;13.86;100.00;101303.59;5112859;28;20071;-83
2021/08/28 00:32:25;;;;;;;14.57;7.20;;;;;;;13.83;100.00;101295.03;5077643;28;20061;-84
2021/08/28 00:34:50;;;;;;;11.90;8.03;;;;;;;13.83;100.00;101290.50;5077024;28;20028;-84
2021/08/28 00:37:15;;;;;;;13.80;8.50;;;;;;;13.85;100.00;101301.06;5093617;28;20032;-85
2021/08/28 00:39:41;;;;;;;10.27;7.57;;;;;;;13.81;100.00;101297.88;5077774;28;20035;-85
2021/08/28 00:42:06;;;;;;;11.67;7.77;;;;;;;13.84;100.00;101300.22;5078245;28;20031;-84
2021/08/28 00:44:32;;;;;;;13.73;8.27;;;;;;;13.82;100.00;101312.97;5094759;28;20015;-84
2021/08/28 00:46:57;;;;;;;11.30;7.17;;;;;;;13.79;100.00;101310.66;5094112;28;20039;-84
2021/08/28 00:49:24;;;;;;;12.25;8.13;;;;;;;13.77;100.00;101293.88;5077462;28;20031;-84
2021/08/28 00:51:49;;;;;;;;;;;;;;;13.81;100.00;101299.72;5094585;28;20124;-83
2021/08/28 00:54:14;;;;;;;;;;;;;;;13.79;100.00;101307.97;5077677;28;20083;-84
2021/08/28 00:56:40;;;;;;;13.30;9.20;;;;;;;13.74;100.00;101312.97;5077624;28;19928;-85
2021/08/28 00:59:06;;;;;;;17.52;11.18;;;;;;;13.68;100.00;101311.00;5077427;28;20031;-84
2021/08/28 01:01:37;;;;;;;15.25;9.63;;;;;;;13.61;100.00;101316.19;5076780;28;20038;-86
2021/08/28 01:04:04;;;;;;;16.02;11.25;;;;;;;13.60;100.00;101317.22;5094326;28;20031;-83
2021/08/28 01:06:48;;;;;;;19.15;11.57;;;;;;;13.60;100.00;101319.88;5077449;28;20027;-85
2021/08/28 01:09:36;;;;;;;18.73;13.07;;;;;;;13.56;100.00;101323.06;5096634;28;20100;-84
2021/08/28 01:12:28;;;;;;;;;;;;;;;13.56;100.00;101323.91;5097532;28;20050;-83
2021/08/28 01:15:08;;;;;;;25.63;13.75;;;;;;;13.56;100.00;101318.53;5078203;28;19975;-84
2021/08/28 01:17:37;;;;;;;26.33;14.30;;;;;;;13.59;100.00;101328.94;5077035;28;20032;-84
2021/08/28 01:20:36;;;;;;;23.63;15.65;;;;;;;13.52;100.00;101331.44;5075361;28;20450;-83
2021/08/28 01:23:33;;;;;;;22.90;14.68;;;;;;;13.55;100.00;101332.09;5087442;28;20096;-84
2021/08/28 01:26:22;;;;;;;24.50;14.82;;;;;;;13.55;100.00;101332.09;5097559;28;20031;-83
2021/08/28 01:28:56;;;;;;;29.13;16.83;;;;;;;13.49;100.00;101328.28;5077711;28;20035;-84
2021/08/28 01:31:22;;;;;;;24.77;15.95;;;;;;;13.51;100.00;101337.00;5077104;28;20032;-83
2021/08/28 01:33:50;;;;;;;27.00;17.27;;;;;;;13.45;100.00;101330.44;5076296;28;20036;-83
2021/08/28 01:36:17;;;;;;;26.77;16.20;;;;;;;13.50;100.00;101333.44;5076709;28;20035;-84
2021/08/28 01:39:02;;;;;;;22.90;15.65;;;;;;;13.48;100.00;101326.56;5096488;28;20065;-84
2021/08/28 01:41:28;;;;;;;25.73;16.55;;;;;;;13.49;100.00;101328.28;5077381;28;20036;-82
2021/08/28 01:44:00;;;;;;;22.20;15.93;;;;;;;13.51;100.00;101334.31;5077961;28;20077;-85
2021/08/28 01:46:27;;;;;;;26.13;15.80;;;;;;;13.51;100.00;101340.50;5077544;28;20027;-84
2021/08/28 01:48:53;;;;;;;;;;;;;;;13.51;100.00;101343.19;5079105;28;20042;-84
2021/08/28 01:51:22;;;;;;;29.90;18.67;;;;;;;13.51;100.00;101340.50;5079117;28;19918;-84
2021/08/28 01:53:48;;;;;;;29.15;17.42;;;;;;;13.49;100.00;101344.38;5078476;28;20842;-83
2021/08/28 01:56:15;;;;;;;28.60;15.77;;;;;;;13.51;100.00;101351.22;5078019;28;20035;-84
2021/08/28 01:58:40;;;;;;;29.65;17.67;;;;;;;13.55;100.00;101356.25;5093416;28;20031;-81
2021/08/28 02:01:31;;;;;;;27.55;18.52;;;;;;;13.54;100.00;101351.91;5102639;28;20034;-83
2021/08/28 02:03:57;;;;;;;32.50;20.15;;;;;;;13.59;100.00;101352.25;5081987;28;20579;-84
2021/08/28 02:06:36;;;;;;;31.02;18.00;;;;;;;13.60;100.00;101353.91;5076836;28;20023;-83
2021/08/28 02:09:09;;;;;;;29.63;18.48;;;;;;;13.52;100.00;101352.91;5077409;28;20111;-84
2021/08/28 02:11:43;;;;;;;30.85;19.48;;;;;;;13.60;100.00;101349.41;5078128;28;20028;-85
2021/08/28 02:14:19;;;;;;;27.45;19.17;;;;;;;13.60;100.00;101343.16;5078409;28;20035;-84
2021/08/28 02:16:45;;;;;;;;;;;;;;;13.67;100.00;101354.91;5094257;28;20040;-86
2021/08/28 02:19:19;;;;;;;32.00;18.38;;;;;;;13.68;100.00;101345.88;5077709;28;20451;-85
2021/08/28 02:22:28;;;;;;;30.98;19.85;;;;;;;13.64;100.00;101339.16;5100950;28;20118;-83
2021/08/28 02:25:27;;;;;;;24.67;17.42;;;;;;;13.66;100.00;101355.94;5074726;28;20046;-86
2021/08/28 02:27:59;;;;;;;35.28;17.98;;;;;;;13.69;100.00;101350.22;5077201;28;20036;-83
2021/08/28 02:30:26;;;;;;;33.15;18.73;;;;;;;13.63;100.00;101341.00;5094371;28;20063;-84
2021/08/28 02:33:23;;;;;;;31.20;19.88;;;;;;;13.61;100.00;101342.19;5086778;28;20086;-83
2021/08/28 02:35:56;;;;;;;26.55;17.63;;;;;;;13.62;100.00;101347.38;5077243;28;20189;-84
2021/08/28 02:38:23;;;;;;;26.75;17.50;;;;;;;13.61;100.00;101347.53;5077509;28;20076;-86
2021/08/28 02:40:50;;;;;;;28.85;18.92;;;;;;;13.60;100.00;101340.50;5077388;28;20772;-84
2021/08/28 02:43:17;;;;;;;27.27;17.75;;;;;;;13.59;100.00;101339.66;5077286;28;20177;-86
2021/08/28 02:45:49;;;;;;;27.52;17.13;;;;;;;13.58;100.00;101342.50;5077118;28;20027;-86
2021/08/28 02:48:18;;;;;;;26.85;18.02;;;;;;;13.57;100.00;101343.50;5076959;28;20031;-86
2021/08/28 02:50:47;;;;;;;29.38;18.95;;;;;;;13.63;100.00;101345.53;5077808;28;20031;-84
2021/08/28 02:53:17;;;;;;;29.60;17.83;;;;;;;13.66;100.00;101345.19;5077736;28;20118;-84
2021/08/28 02:55:45;;;;;;;30.05;18.38;;;;;;;13.61;100.00;101344.88;5077405;28;20058;-84
2021/08/28 02:58:11;;;;;;;27.80;17.67;;;;;;;13.62;100.00;101347.38;5077771;28;20042;-86
2021/08/28 03:00:38;;;;;;;27.95;17.50;;;;;;;13.61;100.00;101342.19;5078819;28;20051;-83
2021/08/28 03:03:09;;;;;;;27.15;16.60;;;;;;;13.60;100.00;101340.50;5081640;28;20091;-84
2021/08/28 03:05:34;;;;;;;;;;;;;;;13.64;100.00;101345.34;5085467;28;20038;-83
2021/08/28 03:08:03;;;;;;;25.40;15.70;;;;;;;13.65;100.00;101330.94;5082126;28;19911;-85
2021/08/28 03:10:31;;;;;;;33.13;17.08;;;;;;;13.69;100.00;101340.31;5081547;28;20037;-83
2021/08/28 03:12:57;;;;;;;23.05;15.32;;;;;;;13.65;100.00;101333.63;5080052;28;20122;-85
2021/08/28 03:15:22;;;;;;;25.88;16.20;;;;;;;13.62;100.00;101333.94;5079710;28;20043;-85
2021/08/28 03:18:08;;;;;;;23.42;15.30;;;;;;;13.69;100.00;101342.16;5081701;28;20097;-85
2021/08/28 03:20:35;;;;;;;22.85;14.88;;;;;;;13.70;100.00;101338.50;5080813;28;20027;-83
2021/08/28 03:23:02;;;;;;;18.30;12.88;;;;;;;13.66;100.00;101331.78;5079083;28;20547;-84
2021/08/28 03:25:28;;;;;;;22.25;13.32;;;;;;;13.70;100.00;101341.19;5079342;28;20031;-83
2021/08/28 03:27:54;;;;;;;25.52;15.07;;;;;;;13.73;100.00;101333.59;5096218;28;20024;-83
2021/08/28 03:30:20;;;;;;;20.52;12.85;;;;;;;13.74;100.00;101339.81;5079114;28;20532;-84
2021/08/28 03:32:51;;;;;;;19.55;12.90;;;;;;;13.78;100.00;101333.09;5079463;28;20039;-83
2021/08/28 03:35:17;;;;;;;17.67;11.63;;;;;;;13.77;100.00;101335.97;5079007;28;20024;-83
2021/08/28 03:37:43;;;;;;;18.88;12.18;;;;;;;13.80;100.00;101341.81;5078942;28;20636;-84
2021/08/28 03:40:11;;;;;;;18.05;12.05;;;;;;;13.80;100.00;101341.81;5079398;28;20036;-84
2021/08/28 03:42:41;;;;;;;18.27;11.00;;;;;;;13.81;100.00;101337.28;5078636;28;20028;-84
2021/08/28 03:45:11;;;;;;;17.85;10.90;;;;;;;13.82;100.00;101342.50;5079384;28;20118;-84
2021/08/28 03:47:43;;;;;;;21.00;11.45;;;;;;;13.83;100.00;101346.84;5078748;28;20032;-84
2021/08/28 03:50:11;;;;;;;18.23;10.75;;;;;;;13.84;100.00;101337.81;5078824;28;20092;-83
2021/08/28 03:52:37;;;;;;;16.75;10.45;;;;;;;13.82;100.00;101339.81;5075854;28;20368;-83
2021/08/28 03:55:03;;;;;;;14.87;9.60;;;;;;;13.82;100.00;101337.13;5088578;28;20110;-83
2021/08/28 03:57:35;;;;;;;12.63;9.48;;;;;;;13.81;100.00;101338.13;5075089;28;20036;-84
2021/08/28 04:00:00;;;;;;;16.38;10.32;;;;;;;13.79;100.00;101339.31;5078362;28;20036;-85
2021/08/28 04:02:26;;;;;;;15.13;10.05;;;;;;;13.79;100.00;101337.47;5078465;28;20038;-83
2021/08/28 04:04:55;;;;;;;14.55;9.98;;;;;;;13.81;100.00;101338.13;5078607;28;20030;-84
2021/08/28 04:07:21;;;;;;;17.65;9.65;;;;;;;13.80;100.00;101341.81;5077968;28;20626;-85
2021/08/28 04:09:46;;;;;;;14.70;9.80;;;;;;;13.77;100.00;101344.84;5077539;28;20039;-84
2021/08/28 04:12:12;;;;;;;12.67;8.73;;;;;;;13.81;100.00;101351.53;5093163;28;20023;-83
2021/08/28 04:14:48;;;;;;;10.30;8.18;;;;;;;13.79;100.00;101344.66;5094627;28;20119;-84
2021/08/28 04:17:14;;;;;;;9.85;7.80;;;;;;;13.80;100.00;101352.56;5077499;28;20110;-85
2021/08/28 04:19:39;;;;;;;16.07;8.33;;;;;;;13.77;100.00;101341.34;5077270;28;20048;-85
2021/08/28 04:22:09;;;;;;;15.90;8.00;;;;;;;13.79;100.00;101344.66;5078411;28;20516;-85
2021/08/28 04:24:53;;;;;;;10.15;7.10;;;;;;;13.89;100.00;101346.19;5097684;28;20039;-84
2021/08/28 04:28:00;;;;;;;11.40;7.05;;;;;;;13.85;100.00;101338.63;5101253;28;20077;-84
2021/08/28 04:30:32;;;;;;;9.32;6.72;;;;;;;13.82;100.00;101339.00;5078970;28;20027;-84
2021/08/28 04:32:57;;;;;;;14.57;7.28;;;;;;;13.83;100.00;101344.16;5095602;28;20412;-84
2021/08/28 04:35:23;;;;;;;11.23;6.80;;;;;;;13.89;100.00;101340.81;5077886;28;20031;-84
2021/08/28 04:37:48;;;;;;;9.03;6.20;;;;;;;13.83;100.00;101344.16;5077787;28;20039;-85
2021/08/28 04:40:14;;;;;;;8.13;6.05;;;;;;;13.95;100.00;101341.97;5077860;28;20028;-85
2021/08/28 04:42:39;;;;;;;10.57;6.20;;;;;;;13.88;100.00;101343.66;5077717;28;20499;-84
2021/08/28 04:45:06;;;;;;;11.93;6.03;;;;;;;13.92;100.00;101345.84;5077693;28;20027;-84
2021/08/28 04:47:50;;;;;;;8.18;5.82;;;;;;;13.95;100.00;101350.03;5094426;28;20039;-84
2021/08/28 04:50:15;;;;;;;14.43;5.63;;;;;;;13.96;100.00;101346.34;5077618;28;20041;-85
2021/08/28 04:52:41;;;;;;;18.23;5.63;;;;;;;13.97;100.00;101344.50;5077909;28;20019;-84
2021/08/28 04:55:07;;;;;;;7.97;5.40;;;;;;;13.97;100.00;101347.19;5077742;28;20050;-85
2021/08/28 04:57:32;;;;;;;10.65;6.13;;;;;;;14.03;100.00;101357.25;5077455;28;20036;-84
2021/08/28 04:59:58;;;;;;;6.90;4.13;;;;;;;14.02;100.00;101347.50;5077804;28;20031;-84
2021/08/28 05:02:43;;;;;;;9.43;5.60;;;;;;;14.04;100.00;101358.91;5097717;28;20043;-84
2021/08/28 05:05:10;;;;;;;;;;;;;;;14.01;100.00;101359.25;5078308;28;20472;-84
2021/08/28 05:07:35;;;;;;;;;;;;;;;14.03;100.00;101359.94;5078298;28;19922;-84
2021/08/28 05:10:01;;;;;;;8.05;5.22;;;;;;;13.97;100.00;101349.84;5077326;28;19918;-84
2021/08/28 05:12:28;;;;;;;9.20;5.00;;;;;;;14.03;100.00;101357.25;5093886;28;20157;-84
2021/08/28 05:15:07;;;;;;;7.30;4.28;;;;;;;14.00;100.00;101353.06;5092770;28;20106;-84
2021/08/28 05:17:39;;;;;;;8.15;5.63;;;;;;;13.96;100.00;101362.44;5074438;28;20683;-84
2021/08/28 05:20:05;;;;;;;8.83;4.93;;;;;;;14.02;100.00;101363.59;5076188;28;20031;-84
2021/08/28 05:22:50;;;;;;;9.65;5.00;;;;;;;14.03;100.00;101363.44;5095213;28;20036;-83
2021/08/28 05:25:34;;;;;;;7.72;4.68;;;;;;;14.06;100.00;101367.63;5096561;28;20515;-84
2021/08/28 05:28:00;;;;;;;8.00;5.03;;;;;;;14.01;100.00;101370.81;5076628;28;20023;-83
2021/08/28 05:30:25;;;;;;;9.65;5.43;;;;;;;14.08;100.00;101376.38;5076618;28;20549;-85
2021/08/28 05:32:51;;;;;;;12.73;5.30;;;;;;;14.06;100.00;101367.63;5077023;28;20036;-85
2021/08/28 05:35:16;;;;;;;9.33;5.63;;;;;;;14.05;100.00;101376.72;5076679;28;20122;-84
2021/08/28 05:38:04;;;;;;;8.45;4.97;;;;;;;14.08;100.00;101377.19;5079205;28;20028;-85
2021/08/28 05:40:33;;;;;;;8.25;5.03;;;;;;;14.09;100.00;101380.72;5077203;28;20028;-83
2021/08/28 05:42:59;;;;;;;8.52;5.18;;;;;;;14.14;100.00;101381.03;5076619;28;20031;-84
2021/08/28 05:45:27;;;;;;;9.45;5.07;;;;;;;14.11;100.00;101386.75;5076656;28;20038;-84
2021/08/28 05:47:53;;;;;;;7.15;4.90;;;;;;;14.06;100.00;101383.75;5076689;28;20058;-86
2021/08/28 05:50:19;;;;;;;10.93;6.03;;;;;;;14.15;100.00;101398.84;5076425;28;20103;-84
2021/08/28 05:52:45;;;;;;;9.53;5.60;;;;;;;14.22;100.00;101388.25;5076114;28;20510;-84
2021/08/28 05:55:13;;;;;;;;;;;;;;;14.26;100.00;101384.22;5076720;28;20488;-84
2021/08/28 05:57:41;;;;;;;11.88;6.13;;;;;;;14.27;100.00;101389.41;5075742;28;19916;-84
2021/08/28 06:00:07;;;;;;;8.13;4.88;;;;;;;14.20;100.00;101395.66;5076622;28;20019;-84
2021/08/28 06:02:40;;;;;;;10.95;5.28;;;;;;;14.13;100.00;101398.16;5111349;28;20036;-85
2021/08/28 06:05:12;;;;;;;10.25;5.32;;;;;;;14.19;100.00;101393.94;5076871;28;20391;-84
2021/08/28 06:08:00;;;;;;;8.75;5.15;;;;;;;14.16;100.00;101384.38;5096325;28;20066;-84
2021/08/28 06:10:45;;;;;;;7.63;4.70;;;;;;;14.21;100.00;101384.75;5096395;28;20484;-84
2021/08/28 06:13:49;;;;;;;9.07;5.25;;;;;;;14.20;100.00;101385.72;5079712;28;20066;-85
2021/08/28 06:16:22;;;;;;;9.23;4.93;;;;;;;14.19;100.00;101383.22;5076650;28;20039;-84
2021/08/28 06:18:47;;;;;;;10.85;4.78;;;;;;;14.20;100.00;101384.91;5075990;28;20032;-84
2021/08/28 06:21:12;;;;;;;8.90;5.17;;;;;;;14.22;100.00;101381.03;5076428;28;20397;-85
2021/08/28 06:23:39;;;;;;;9.73;5.20;;;;;;;14.25;100.00;101383.38;5076143;28;20031;-84
2021/08/28 06:26:34;;;;;;;6.53;4.78;;;;;;;14.27;100.00;101380.53;5080296;28;20511;-84
2021/08/28 06:29:00;;;;;;;7.75;4.95;;;;;;;14.32;100.00;101388.91;5076299;28;20419;-84
2021/08/28 06:31:26;;;;;;;7.20;4.72;;;;;;;14.38;100.00;101396.28;5092845;28;20519;-84
2021/08/28 06:33:51;;;;;;;11.10;5.13;;;;;;;14.43;100.00;101395.78;5092820;28;20055;-84
2021/08/28 06:36:19;;;;;;;7.40;4.30;;;;;;;14.36;100.00;101400.97;5078510;28;20031;-84
2021/08/28 06:39:00;;;;;;;10.10;4.88;;;;;;;14.25;100.00;101390.59;5099248;28;20416;-85
2021/08/28 06:41:44;;;;;;;6.25;4.63;;;;;;;14.25;100.00;101398.66;5100407;28;20774;-85
2021/08/28 06:44:35;;;;;;;9.73;3.55;;;;;;;14.12;100.00;101405.38;5077819;28;20099;-86
2021/08/28 06:47:30;;;;;;;8.70;3.47;;;;;;;14.13;100.00;101396.31;5106216;28;20094;-86
2021/08/28 06:50:14;;;;;;;5.50;3.00;;;;;;;14.16;100.00;101395.13;5123836;28;20069;-86
2021/08/28 06:52:58;;;;;;;6.57;3.50;;;;;;;14.19;100.00;101400.19;5123810;28;20096;-87
2021/08/28 06:55:49;;;;;;;4.82;3.75;;;;;;;14.18;100.00;101398.50;5124188;28;20096;-85
2021/08/28 06:58:49;;;;;;;6.03;3.08;;;;;;;14.21;100.00;101398.16;5125985;28;20047;-84
2021/08/28 07:01:31;;;;;;;7.13;3.38;;;;;;;14.25;100.00;101394.09;5105819;28;20043;-86
2021/08/28 07:04:31;;;;;;;6.05;3.15;;;;;;;14.26;100.00;101393.13;5099700;28;20386;-84
2021/08/28 07:07:15;;;;;;;8.85;4.85;;;;;;;14.27;100.00;101402.00;5098619;28;20522;-83
2021/08/28 07:09:44;;;;;;;3.90;2.95;;;;;;;14.28;100.00;101398.31;5079989;28;20035;-84
2021/08/28 07:12:09;;;;;;;4.37;3.00;;;;;;;14.21;100.00;101398.16;5096762;28;20053;-83
2021/08/28 07:14:35;;;;;;;5.80;4.10;;;;;;;14.11;100.00;101403.69;5079483;28;20152;-84
2021/08/28 07:17:00;;;;;;;12.10;3.42;;;;;;;14.11;100.00;101398.31;5079361;28;20122;-83
2021/08/28 07:19:26;;;;;;;8.13;3.17;;;;;;;14.16;100.00;101403.19;5096404;28;20016;-83
2021/08/28 07:21:51;;;;;;;5.53;3.13;;;;;;;14.17;100.00;101407.56;5079703;28;20106;-85
2021/08/28 07:24:17;;;;;;;5.97;2.85;;;;;;;14.26;100.00;101411.09;5079432;28;20635;-84
2021/08/28 07:26:46;;;;;;;5.43;3.38;;;;;;;14.27;100.00;101402.84;5080242;28;20043;-83
2021/08/28 07:29:44;;;;;;;5.82;3.28;;;;;;;14.19;100.00;101397.50;5100642;28;20035;-86
2021/08/28 07:32:10;;;;;;;10.30;4.43;;;;;;;14.11;100.00;101413.59;5079320;28;20329;-83
2021/08/28 07:34:36;;;;;;;10.25;3.30;;;;;;;14.12;100.00;101404.56;5079015;28;20443;-83
2021/08/28 07:37:06;;;;;;;5.70;3.38;;;;;;;14.21;100.00;101406.22;5079197;28;20020;-83
2021/08/28 07:39:32;;;;;;;6.80;3.42;;;;;;;14.18;100.00;101424.50;5095656;28;20036;-84
2021/08/28 07:41:58;;;;;;;5.40;4.28;;;;;;;14.09;100.00;101411.09;5078896;28;20889;-84
2021/08/28 07:44:24;;;;;;;5.53;3.70;;;;;;;14.06;100.00;101403.38;5078726;28;20041;-85
2021/08/28 07:46:50;;;;;;;;;;;;;;;14.15;100.00;101409.56;5078897;28;20269;-83
2021/08/28 07:49:20;;;;;;;6.07;3.25;;;;;;;14.23;100.00;101414.91;5079563;28;19919;-84
2021/08/28 07:51:47;;;;;;;8.02;4.55;;;;;;;14.24;100.00;101411.25;5078970;28;20063;-83
2021/08/28 07:54:12;;;;;;;5.18;3.42;;;;;;;14.24;100.00;101408.56;5078457;28;20054;-83
2021/08/28 07:56:38;;;;;;;;;;;;;;;14.33;100.00;101404.03;5079258;28;20089;-83
2021/08/28 07:59:04;;;;;;;;;;;;;;;14.23;100.00;101408.72;5078849;28;19915;-83
2021/08/28 08:01:30;;;;;;;8.27;3.50;;;;;;;14.30;100.00;101405.16;5078473;28;20411;-84
2021/08/28 08:03:55;;;;;;;8.35;4.32;;;;;;;14.36;100.00;101409.03;5078316;28;20630;-84
2021/08/28 08:06:39;;;;;;;7.32;3.55;;;;;;;14.37;100.00;101408.03;5098370;28;20062;-83
2021/08/28 08:09:23;;;;;;;5.03;3.50;;;;;;;14.54;100.00;101416.94;5098074;28;20131;-86
2021/08/28 08:11:54;;;;;;;4.50;3.72;;;;;;;14.58;100.00;101415.56;5096373;28;20042;-84
2021/08/28 08:14:38;;;;;;;6.25;3.58;;;;;;;14.61;100.00;101425.13;5097541;28;20054;-85
2021/08/28 08:17:27;;;;;;;4.53;3.05;;;;;;;14.65;100.00;101424.59;5069732;28;20096;-83
2021/08/28 08:20:17;;;;;;;6.07;3.03;;;;;;;14.67;100.00;101419.91;5095223;28;20036;-83
2021/08/28 08:23:12;;;;;;;4.50;2.58;;;;;;;14.63;100.00;101428.47;5070139;28;20175;-84
2021/08/28 08:25:56;;;;;;;7.75;3.15;;;;;;;14.59;100.00;101419.09;5097014;28;20050;-84
2021/08/28 08:28:58;;;;;;;4.72;2.72;;;;;;;14.69;100.00;101436.69;5099521;28;20074;-84
2021/08/28 08:31:34;;;;;;;4.43;2.47;;;;;;;14.64;100.00;101433.69;5078878;28;20073;-83
2021/08/28 08:34:20;;;;;;;10.40;2.80;;;;;;;14.78;100.00;101442.88;5112695;28;20493;-84
2021/08/28 08:36:46;;;;;;;4.40;2.13;;;;;;;14.74;100.00;101444.22;5077878;28;20039;-83
2021/08/28 08:39:12;;;;;;;4.53;2.55;;;;;;;14.68;100.00;101440.41;5077374;28;20031;-84
2021/08/28 08:41:39;;;;;;;7.10;1.93;;;;;;;14.72;100.00;101438.19;5094861;28;20031;-83
2021/08/28 08:44:07;;;;;;;3.88;2.25;;;;;;;14.70;100.00;101437.53;5077686;28;20032;-84
2021/08/28 08:46:34;;;;;;;4.70;1.80;;;;;;;14.66;100.00;101438.91;5077772;28;20487;-84
2021/08/28 08:49:00;;;;;;;2.38;2.10;;;;;;;14.63;100.00;101440.06;5077892;28;20089;-84
2021/08/28 08:51:26;;;;;;;2.47;1.90;;;;;;;14.69;100.00;101442.06;5078254;28;20040;-83
2021/08/28 08:53:51;;;;;;;2.10;1.77;;;;;;;14.84;100.00;101446.72;5077358;28;20024;-84
2021/08/28 08:56:19;;;;;;;3.15;1.90;;;;;;;14.75;100.00;101446.75;5077508;28;20059;-84
2021/08/28 08:58:47;;;;;;;2.30;1.60;;;;;;;14.85;100.00;101446.56;5077930;28;20091;-84
2021/08/28 09:01:13;;;;;;;3.70;1.88;;;;;;;14.98;100.00;101444.16;5094317;28;20799;-86
2021/08/28 09:03:38;;;;;;;8.47;1.63;;;;;;;14.97;100.00;101438.94;5094439;28;20404;-84
2021/08/28 09:06:06;;;;;;;4.00;1.80;;;;;;;15.10;100.00;101436.53;5077667;28;20024;-84
2021/08/28 09:08:36;;;;;;;3.33;1.65;;;;;;;15.28;100.00;101443.50;5078198;28;20028;-83
2021/08/28 09:11:02;;;;;;;3.07;1.40;;;;;;;15.38;100.00;101441.41;5077243;28;20076;-84
2021/08/28 09:13:27;;;;;;;2.50;1.10;;;;;;;15.52;100.00;101429.06;5077198;28;20054;-84
2021/08/28 09:15:57;;;;;;;3.17;1.10;;;;;;;15.48;100.00;101436.66;5076830;28;20032;-84
2021/08/28 09:18:23;;;;;;;4.38;1.05;;;;;;;15.45;100.00;101439.69;5093631;28;20047;-84
2021/08/28 09:20:49;;;;;;;3.47;1.23;;;;;;;15.29;100.00;101440.66;5078039;28;20042;-84
2021/08/28 09:23:17;;;;;;;1.55;1.17;;;;;;;15.33;100.00;101439.25;5076898;28;20023;-83
2021/08/28 09:25:45;;;;;;;1.38;0.68;;;;;;;15.38;100.00;101439.59;5093754;28;20476;-84
2021/08/28 09:28:11;;;;;;;3.58;1.25;;;;;;;15.24;100.00;101429.59;5077070;28;20492;-83
2021/08/28 09:30:40;;;;;;;0.75;0.70;;;;;;;15.33;100.00;101435.72;5077324;28;20108;-83
2021/08/28 09:33:13;;;;;;;2.35;0.80;;;;;;;15.22;100.00;101436.13;5077094;28;20388;-83
2021/08/28 09:35:41;;;;;;;1.48;0.68;;;;;;;15.23;100.00;101444.03;5076822;28;20042;-83
2021/08/28 09:38:09;;;;;;;2.55;1.02;;;;;;;15.46;100.00;101451.31;5076591;28;20032;-84
2021/08/28 09:40:39;;;;;;;1.60;1.38;;;;;;;15.45;100.00;101434.31;5093477;28;20023;-83
2021/08/28 09:43:13;;;;;;;1.77;0.80;;;;;;;15.44;100.00;101437.19;5077028;28;20077;-83
2021/08/28 09:45:39;;;;;;;1.15;0.90;;;;;;;15.35;100.00;101429.16;5077961;28;20044;-83
2021/08/28 09:48:07;;;;;;;1.58;0.52;;;;;;;15.18;100.00;101439.19;5077762;28;20077;-83
2021/08/28 09:50:36;;;;;;;1.88;1.27;;;;;;;15.43;100.00;101439.06;5095260;28;20042;-83
2021/08/28 09:53:07;;;;;;;0.80;0.70;;;;;;;15.51;100.00;101441.69;5076963;28;20172;-83
2021/08/28 09:55:34;;;;;;;12.75;1.80;;;;;;;15.54;100.00;101446.69;5076547;28;20031;-83
2021/08/28 09:58:00;;;;;;;1.92;0.80;;;;;;;15.60;100.00;101442.47;5076987;28;20164;-83
2021/08/28 10:00:28;;;;;;;2.40;0.97;;;;;;;15.61;100.00;101441.44;5076685;28;20130;-84
2021/08/28 10:03:04;;;;;;;2.55;1.38;;;;;;;15.78;100.00;101442.19;5076461;28;20039;-83
2021/08/28 10:05:34;;;;;;;;;;;;;;;15.78;100.00;101439.50;5078002;28;20036;-82
2021/08/28 10:08:03;;;;;;;3.63;1.00;;;;;;;15.72;100.00;101441.06;5077230;28;20391;-84
2021/08/28 10:10:30;;;;;;;2.13;0.75;;;;;;;15.87;100.00;101438.41;5077542;28;20180;-84
2021/08/28 10:12:57;;;;;;;2.50;1.25;;;;;;;15.98;100.00;101434.47;5079474;28;20023;-84
2021/08/28 10:15:23;;;;;;;1.67;0.80;;;;;;;16.10;100.00;101441.09;5078559;28;20055;-83
2021/08/28 10:17:49;;;;;;;0.90;0.70;;;;;;;15.70;99.90;101442.22;5078696;28;20024;-84
2021/08/28 10:20:17;;;;;;;1.50;0.70;;;;;;;15.66;100.00;101443.59;5096745;28;20391;-83
2021/08/28 10:22:42;;;;;;;0.50;0.50;;;;;;;15.49;100.00;101440.19;5079193;28;20032;-83
2021/08/28 10:25:12;;;;;;;2.28;0.73;;;;;;;15.57;100.00;101443.69;5078447;28;20130;-85
2021/08/28 10:27:39;;;;;;;3.10;0.90;;;;;;;15.59;100.00;101438.94;5079268;28;20746;-83
2021/08/28 10:30:10;;;;;;;1.60;0.80;;;;;;;15.60;100.00;101445.16;5080540;28;20046;-83
2021/08/28 10:32:36;;;;;;;2.05;0.80;;;;;;;15.46;100.00;101441.38;5079394;28;20040;-84
2021/08/28 10:35:02;;;;;;;1.85;0.80;;;;;;;15.47;100.00;101440.34;5079682;28;20119;-83
2021/08/28 10:37:28;;;;;;;2.05;1.00;;;;;;;15.48;100.00;101439.34;5096048;28;20043;-85
2021/08/28 10:39:54;;;;;;;6.03;1.45;;;;;;;15.46;100.00;101441.38;5079612;28;20024;-83
2021/08/28 10:42:21;;;;;;;1.77;0.80;;;;;;;15.26;100.00;101438.28;5080266;28;20042;-84
2021/08/28 10:44:51;;;;;;;1.58;1.00;;;;;;;15.34;100.00;101440.94;5079112;28;20038;-84
2021/08/28 10:47:26;;;;;;;3.88;1.05;;;;;;;15.26;100.00;101437.47;5078403;28;20114;-84
2021/08/28 10:50:06;;;;;;;2.05;1.00;;;;;;;15.04;100.00;101453.38;5080519;28;20032;-85
2021/08/28 10:52:35;;;;;;;1.40;1.10;;;;;;;15.02;100.00;101455.38;5077392;28;20036;-84
2021/08/28 10:55:10;;;;;;;3.55;1.58;;;;;;;14.96;100.00;101450.69;5096341;28;20036;-84
2021/08/28 10:57:39;;;;;;;2.85;1.33;;;;;;;14.94;100.00;101458.13;5078055;28;20046;-85
2021/08/28 11:00:12;;;;;;;4.03;1.38;;;;;;;14.84;100.00;101454.78;5080059;28;20042;-85
2021/08/28 11:02:47;;;;;;;2.05;1.17;;;;;;;14.85;100.00;101449.25;5077886;28;20057;-83
2021/08/28 11:05:18;;;;;;;1.70;1.25;;;;;;;14.91;100.00;101463.81;5077710;28;20032;-83
2021/08/28 11:07:44;;;;;;;5.43;1.90;;;;;;;14.95;100.00;101454.41;5078565;28;20039;-83
2021/08/28 11:10:09;;;;;;;3.03;1.38;;;;;;;14.95;100.00;101462.47;5094901;28;20110;-83
2021/08/28 11:12:53;;;;;;;2.77;1.30;;;;;;;14.96;100.00;101462.31;5078833;28;20516;-83
2021/08/28 11:15:24;;;;;;;1.48;1.27;;;;;;;15.01;100.00;101464.47;5094074;28;20028;-85
2021/08/28 11:17:53;;;;;;;4.10;1.45;;;;;;;14.94;100.00;101455.44;5092982;28;20092;-83
2021/08/28 11:20:38;;;;;;;6.45;1.60;;;;;;;14.91;100.00;101464.69;5077451;28;20069;-83
2021/08/28 11:23:05;;;;;;;2.35;1.92;;;;;;;15.09;100.00;101466.28;5080295;28;20079;-83
2021/08/28 11:25:33;;;;;;;3.65;1.70;;;;;;;15.04;100.00;101463.28;5081594;28;20046;-83
2021/08/28 11:28:00;;;;;;;2.20;1.15;;;;;;;15.05;100.00;101464.97;5100194;28;20066;-85
2021/08/28 11:30:55;;;;;;;3.97;1.73;;;;;;;15.08;100.00;101465.47;5100027;28;20054;-83
2021/08/28 11:33:25;;;;;;;3.60;1.73;;;;;;;15.10;100.00;101462.56;5080383;28;20071;-83